Portada
METAR-TAF:

METAR-TAF

Aeroports :

Dubai World Central International Airport

Dubai, Emirats Àrabs Units

latitud: 24-53-49N, longitud: 55-09-40E, altitud: 35 m

Observació

L'informe es va fer fa 24 minuts, a les 03:00 UTC
Vent 8 kt del Sud
Temperatura 24°C
Humitat 54%
Pressió 1007 hPa
Visibilitat 10 km o més
sense núvols per sota de 1500 mi sense presència de cumulonimbus.

METAR: OMDW 110300Z 17008KT CAVOK 24/14 Q1007 NOSIG

Hora: 07:24 (03:24 UTC)

Pronòstic

L'informe es va fer fa 4 hores i 24 minuts, a les 23:00 UTC
Pronòstic vàlid del 11 a les 00 UTC al 12 a les 06 UTC
Vent 7 kt del Sud
Visibilitat: 8000 m
Evolucionant progressivament
l' 11 a les 06 UTC al 11 a les 08 UTC
Vent 14 kt del Nord-Oest
Evolucionant progressivament
l' 11 a les 15 UTC al 11 a les 17 UTC
Vent 5 kt del Sud
Probabilitat 30%
l' 12 a les 00 UTC al 12 a les 04 UTC
Visibilitat: 4000 m
calitja

TAF: OMDW 102300Z 1100/1206 18007KT 8000 NSC BECMG 1106/1108 32014KT BECMG 1115/1117 19005KT PROB30 1200/1204 4000 HZ

Observacions i pronòstics meteorològics de més de 4000 aeroports (METAR i TAF).

Les estacions disponibles són els punts grocs i vermells al mapa.

Posi el ratolí al punt desitjat per veure el nom de l'estació.

Feu clic per veure les observacions i els pronòstics meteorològics.

Per canviar el mapa: feu clic els botons verds amb una creu de color negre per apropar; al botó verd amb un guió per allunyar la imatge; o en les fletxes verdes per a mapes adjacents.


METAR-TAF: